sensor_id;sensor_type;location;lat;lon;timestamp;P1;durP1;ratioP1;P2;durP2;ratioP2
28613;SDS011;15806;53.548;9.964;2023-02-28T00:01:30;5.43;;;1.02;;
28613;SDS011;15806;53.548;9.964;2023-02-28T00:03:11;6.05;;;1.17;;
28613;SDS011;15806;53.548;9.964;2023-02-28T00:04:51;5.03;;;1.13;;
28613;SDS011;15806;53.548;9.964;2023-02-28T00:06:32;3.20;;;0.90;;
28613;SDS011;15806;53.548;9.964;2023-02-28T00:08:12;4.63;;;1.47;;
28613;SDS011;15806;53.548;9.964;2023-02-28T00:09:53;4.37;;;1.43;;
28613;SDS011;15806;53.548;9.964;2023-02-28T00:11:34;4.43;;;1.00;;
28613;SDS011;15806;53.548;9.964;2023-02-28T00:13:14;4.43;;;1.27;;
28613;SDS011;15806;53.548;9.964;2023-02-28T00:14:55;2.70;;;1.10;;
28613;SDS011;15806;53.548;9.964;2023-02-28T00:16:35;5.90;;;1.10;;
28613;SDS011;15806;53.548;9.964;2023-02-28T00:18:16;5.23;;;1.53;;
28613;SDS011;15806;53.548;9.964;2023-02-28T00:19:56;5.03;;;1.13;;
28613;SDS011;15806;53.548;9.964;2023-02-28T00:21:37;3.30;;;1.30;;
28613;SDS011;15806;53.548;9.964;2023-02-28T00:23:17;2.63;;;1.20;;
28613;SDS011;15806;53.548;9.964;2023-02-28T00:24:58;5.57;;;1.10;;
28613;SDS011;15806;53.548;9.964;2023-02-28T00:26:39;3.77;;;1.30;;
28613;SDS011;15806;53.548;9.964;2023-02-28T00:28:19;2.40;;;1.00;;
28613;SDS011;15806;53.548;9.964;2023-02-28T00:30:00;4.75;;;1.33;;
28613;SDS011;15806;53.548;9.964;2023-02-28T00:31:41;4.15;;;1.20;;
28613;SDS011;15806;53.548;9.964;2023-02-28T00:33:21;4.47;;;1.03;;
28613;SDS011;15806;53.548;9.964;2023-02-28T00:35:02;2.27;;;1.37;;
28613;SDS011;15806;53.548;9.964;2023-02-28T00:36:43;5.60;;;1.33;;
28613;SDS011;15806;53.548;9.964;2023-02-28T00:38:23;2.10;;;0.90;;
28613;SDS011;15806;53.548;9.964;2023-02-28T00:40:04;5.17;;;1.13;;
28613;SDS011;15806;53.548;9.964;2023-02-28T00:41:46;7.47;;;1.90;;
28613;SDS011;15806;53.548;9.964;2023-02-28T00:43:26;7.37;;;1.63;;
28613;SDS011;15806;53.548;9.964;2023-02-28T00:45:07;4.33;;;1.33;;
28613;SDS011;15806;53.548;9.964;2023-02-28T00:46:48;6.35;;;1.67;;
28613;SDS011;15806;53.548;9.964;2023-02-28T00:48:28;5.33;;;1.17;;
28613;SDS011;15806;53.548;9.964;2023-02-28T00:50:09;3.40;;;1.50;;
28613;SDS011;15806;53.548;9.964;2023-02-28T00:51:50;2.17;;;1.15;;
28613;SDS011;15806;53.548;9.964;2023-02-28T00:53:31;5.07;;;1.87;;
28613;SDS011;15806;53.548;9.964;2023-02-28T00:55:11;5.18;;;1.40;;
28613;SDS011;15806;53.548;9.964;2023-02-28T00:56:52;4.10;;;1.40;;
28613;SDS011;15806;53.548;9.964;2023-02-28T00:58:33;4.10;;;1.40;;
28613;SDS011;15806;53.548;9.964;2023-02-28T01:00:13;12.47;;;2.30;;
28613;SDS011;15806;53.548;9.964;2023-02-28T01:01:54;2.70;;;1.35;;
28613;SDS011;15806;53.548;9.964;2023-02-28T01:03:35;3.47;;;1.40;;
28613;SDS011;15806;53.548;9.964;2023-02-28T01:05:15;2.80;;;1.27;;
28613;SDS011;15806;53.548;9.964;2023-02-28T01:06:56;7.03;;;1.40;;
28613;SDS011;15806;53.548;9.964;2023-02-28T01:08:36;3.80;;;1.40;;
28613;SDS011;15806;53.548;9.964;2023-02-28T01:10:17;3.77;;;1.03;;
28613;SDS011;15806;53.548;9.964;2023-02-28T01:11:58;4.70;;;1.30;;
28613;SDS011;15806;53.548;9.964;2023-02-28T01:13:38;4.23;;;1.43;;
28613;SDS011;15806;53.548;9.964;2023-02-28T01:15:19;8.00;;;2.07;;
28613;SDS011;15806;53.548;9.964;2023-02-28T01:16:59;5.50;;;1.43;;
28613;SDS011;15806;53.548;9.964;2023-02-28T01:18:40;5.15;;;1.45;;
28613;SDS011;15806;53.548;9.964;2023-02-28T01:20:21;7.65;;;2.03;;
28613;SDS011;15806;53.548;9.964;2023-02-28T01:22:02;3.77;;;1.20;;
28613;SDS011;15806;53.548;9.964;2023-02-28T01:23:44;3.50;;;1.02;;
28613;SDS011;15806;53.548;9.964;2023-02-28T01:25:25;3.97;;;1.10;;
28613;SDS011;15806;53.548;9.964;2023-02-28T01:27:05;1.83;;;0.97;;
28613;SDS011;15806;53.548;9.964;2023-02-28T01:28:47;5.03;;;1.37;;
28613;SDS011;15806;53.548;9.964;2023-02-28T01:30:29;5.75;;;1.20;;
28613;SDS011;15806;53.548;9.964;2023-02-28T01:32:10;3.83;;;1.45;;
28613;SDS011;15806;53.548;9.964;2023-02-28T01:33:50;8.73;;;1.60;;
28613;SDS011;15806;53.548;9.964;2023-02-28T01:35:34;3.60;;;1.27;;
28613;SDS011;15806;53.548;9.964;2023-02-28T01:37:15;3.10;;;1.17;;
28613;SDS011;15806;53.548;9.964;2023-02-28T01:38:56;11.63;;;4.03;;
28613;SDS011;15806;53.548;9.964;2023-02-28T01:40:37;7.20;;;1.95;;
28613;SDS011;15806;53.548;9.964;2023-02-28T01:42:17;13.37;;;2.70;;
28613;SDS011;15806;53.548;9.964;2023-02-28T01:44:03;7.97;;;3.87;;
28613;SDS011;15806;53.548;9.964;2023-02-28T01:45:46;11.43;;;3.45;;
28613;SDS011;15806;53.548;9.964;2023-02-28T01:47:32;13.10;;;2.78;;
28613;SDS011;15806;53.548;9.964;2023-02-28T01:49:15;11.20;;;3.60;;
28613;SDS011;15806;53.548;9.964;2023-02-28T01:50:58;21.02;;;4.43;;
28613;SDS011;15806;53.548;9.964;2023-02-28T01:52:43;16.52;;;5.07;;
28613;SDS011;15806;53.548;9.964;2023-02-28T01:54:30;14.55;;;4.45;;
28613;SDS011;15806;53.548;9.964;2023-02-28T01:56:13;13.55;;;5.70;;
28613;SDS011;15806;53.548;9.964;2023-02-28T01:58:01;17.48;;;5.63;;
28613;SDS011;15806;53.548;9.964;2023-02-28T01:59:47;32.97;;;7.82;;
28613;SDS011;15806;53.548;9.964;2023-02-28T02:01:41;19.95;;;6.63;;
28613;SDS011;15806;53.548;9.964;2023-02-28T02:03:22;24.80;;;6.30;;
28613;SDS011;15806;53.548;9.964;2023-02-28T02:05:07;26.13;;;7.32;;
28613;SDS011;15806;53.548;9.964;2023-02-28T02:06:50;27.80;;;8.25;;
28613;SDS011;15806;53.548;9.964;2023-02-28T02:08:30;37.95;;;9.25;;
28613;SDS011;15806;53.548;9.964;2023-02-28T02:10:12;24.93;;;8.33;;
28613;SDS011;15806;53.548;9.964;2023-02-28T02:12:02;29.75;;;8.02;;
28613;SDS011;15806;53.548;9.964;2023-02-28T02:14:16;25.20;;;6.35;;
28613;SDS011;15806;53.548;9.964;2023-02-28T02:18:29;11.00;;;3.78;;
28613;SDS011;15806;53.548;9.964;2023-02-28T02:22:48;5.97;;;2.80;;
28613;SDS011;15806;53.548;9.964;2023-02-28T02:31:20;5.10;;;2.22;;
28613;SDS011;15806;53.548;9.964;2023-02-28T02:39:23;6.43;;;2.22;;
28613;SDS011;15806;53.548;9.964;2023-02-28T02:41:19;8.43;;;2.83;;
28613;SDS011;15806;53.548;9.964;2023-02-28T02:44:53;41.13;;;10.35;;
28613;SDS011;15806;53.548;9.964;2023-02-28T02:46:41;36.80;;;11.77;;
28613;SDS011;15806;53.548;9.964;2023-02-28T02:48:29;55.30;;;14.95;;
28613;SDS011;15806;53.548;9.964;2023-02-28T02:50:14;70.75;;;18.05;;
28613;SDS011;15806;53.548;9.964;2023-02-28T02:52:01;64.13;;;17.60;;
28613;SDS011;15806;53.548;9.964;2023-02-28T02:53:55;67.63;;;18.85;;
28613;SDS011;15806;53.548;9.964;2023-02-28T02:55:42;132.70;;;33.67;;
28613;SDS011;15806;53.548;9.964;2023-02-28T02:57:30;217.98;;;58.83;;
28613;SDS011;15806;53.548;9.964;2023-02-28T02:59:18;313.73;;;78.10;;
28613;SDS011;15806;53.548;9.964;2023-02-28T03:01:01;284.55;;;69.38;;
28613;SDS011;15806;53.548;9.964;2023-02-28T03:02:44;284.35;;;75.65;;
28613;SDS011;15806;53.548;9.964;2023-02-28T03:04:26;290.48;;;69.22;;
28613;SDS011;15806;53.548;9.964;2023-02-28T03:06:10;197.70;;;52.00;;
28613;SDS011;15806;53.548;9.964;2023-02-28T03:07:51;144.87;;;37.37;;
28613;SDS011;15806;53.548;9.964;2023-02-28T03:09:32;122.27;;;31.30;;
28613;SDS011;15806;53.548;9.964;2023-02-28T03:11:14;116.93;;;29.20;;
28613;SDS011;15806;53.548;9.964;2023-02-28T03:13:00;112.90;;;28.53;;
28613;SDS011;15806;53.548;9.964;2023-02-28T03:18:46;80.55;;;22.35;;
28613;SDS011;15806;53.548;9.964;2023-02-28T03:24:57;62.80;;;16.60;;
28613;SDS011;15806;53.548;9.964;2023-02-28T03:27:04;52.50;;;14.35;;
28613;SDS011;15806;53.548;9.964;2023-02-28T03:29:07;47.70;;;13.10;;
28613;SDS011;15806;53.548;9.964;2023-02-28T03:31:01;34.22;;;10.27;;
28613;SDS011;15806;53.548;9.964;2023-02-28T03:32:55;28.52;;;8.10;;
28613;SDS011;15806;53.548;9.964;2023-02-28T03:37:08;13.93;;;5.85;;
28613;SDS011;15806;53.548;9.964;2023-02-28T03:40:39;13.50;;;4.35;;
28613;SDS011;15806;53.548;9.964;2023-02-28T03:42:29;12.40;;;3.80;;
28613;SDS011;15806;53.548;9.964;2023-02-28T03:44:13;11.60;;;3.47;;
28613;SDS011;15806;53.548;9.964;2023-02-28T03:45:57;11.02;;;3.55;;
28613;SDS011;15806;53.548;9.964;2023-02-28T03:47:46;9.38;;;3.42;;
28613;SDS011;15806;53.548;9.964;2023-02-28T03:49:35;11.45;;;3.55;;
28613;SDS011;15806;53.548;9.964;2023-02-28T03:51:26;11.05;;;3.40;;
28613;SDS011;15806;53.548;9.964;2023-02-28T03:55:01;9.88;;;3.50;;
28613;SDS011;15806;53.548;9.964;2023-02-28T03:56:54;9.20;;;3.47;;
28613;SDS011;15806;53.548;9.964;2023-02-28T03:59:02;11.52;;;3.75;;
28613;SDS011;15806;53.548;9.964;2023-02-28T04:01:00;11.88;;;3.35;;
28613;SDS011;15806;53.548;9.964;2023-02-28T04:02:46;9.82;;;4.00;;
28613;SDS011;15806;53.548;9.964;2023-02-28T04:04:26;8.07;;;3.07;;
28613;SDS011;15806;53.548;9.964;2023-02-28T04:06:08;8.50;;;3.70;;
28613;SDS011;15806;53.548;9.964;2023-02-28T04:08:06;12.98;;;3.50;;
28613;SDS011;15806;53.548;9.964;2023-02-28T04:09:47;14.20;;;6.07;;
28613;SDS011;15806;53.548;9.964;2023-02-28T04:13:31;11.43;;;3.97;;
28613;SDS011;15806;53.548;9.964;2023-02-28T04:15:12;8.00;;;3.93;;
28613;SDS011;15806;53.548;9.964;2023-02-28T04:16:53;7.57;;;4.40;;
28613;SDS011;15806;53.548;9.964;2023-02-28T04:18:33;11.93;;;4.90;;
28613;SDS011;15806;53.548;9.964;2023-02-28T04:20:14;12.87;;;4.67;;
28613;SDS011;15806;53.548;9.964;2023-02-28T04:21:55;14.43;;;5.73;;
28613;SDS011;15806;53.548;9.964;2023-02-28T04:23:35;10.48;;;4.68;;
28613;SDS011;15806;53.548;9.964;2023-02-28T04:25:16;11.53;;;4.40;;
28613;SDS011;15806;53.548;9.964;2023-02-28T04:26:57;13.37;;;4.60;;
28613;SDS011;15806;53.548;9.964;2023-02-28T04:28:38;10.27;;;4.38;;
28613;SDS011;15806;53.548;9.964;2023-02-28T04:30:18;8.57;;;4.20;;
28613;SDS011;15806;53.548;9.964;2023-02-28T04:31:59;10.17;;;4.27;;
28613;SDS011;15806;53.548;9.964;2023-02-28T04:33:40;6.97;;;3.63;;
28613;SDS011;15806;53.548;9.964;2023-02-28T04:35:21;12.93;;;5.73;;
28613;SDS011;15806;53.548;9.964;2023-02-28T04:37:01;8.33;;;3.60;;
28613;SDS011;15806;53.548;9.964;2023-02-28T04:38:42;8.87;;;4.00;;
28613;SDS011;15806;53.548;9.964;2023-02-28T04:40:23;11.05;;;4.20;;
28613;SDS011;15806;53.548;9.964;2023-02-28T04:42:04;11.70;;;4.97;;
28613;SDS011;15806;53.548;9.964;2023-02-28T04:43:44;10.23;;;4.40;;
28613;SDS011;15806;53.548;9.964;2023-02-28T04:45:25;13.13;;;4.83;;
28613;SDS011;15806;53.548;9.964;2023-02-28T04:47:06;7.72;;;3.72;;
28613;SDS011;15806;53.548;9.964;2023-02-28T04:48:47;10.70;;;4.43;;
28613;SDS011;15806;53.548;9.964;2023-02-28T04:50:27;11.20;;;4.13;;
28613;SDS011;15806;53.548;9.964;2023-02-28T04:52:08;8.70;;;4.30;;
28613;SDS011;15806;53.548;9.964;2023-02-28T04:53:49;16.53;;;4.77;;
28613;SDS011;15806;53.548;9.964;2023-02-28T04:55:29;16.90;;;4.97;;
28613;SDS011;15806;53.548;9.964;2023-02-28T04:57:10;8.93;;;3.80;;
28613;SDS011;15806;53.548;9.964;2023-02-28T04:58:50;15.07;;;4.03;;
28613;SDS011;15806;53.548;9.964;2023-02-28T05:00:31;9.67;;;3.90;;
28613;SDS011;15806;53.548;9.964;2023-02-28T05:02:11;11.20;;;4.13;;
28613;SDS011;15806;53.548;9.964;2023-02-28T05:03:53;7.97;;;3.37;;
28613;SDS011;15806;53.548;9.964;2023-02-28T05:05:35;12.23;;;4.70;;
28613;SDS011;15806;53.548;9.964;2023-02-28T05:07:16;9.60;;;4.20;;
28613;SDS011;15806;53.548;9.964;2023-02-28T05:08:57;10.77;;;4.63;;
28613;SDS011;15806;53.548;9.964;2023-02-28T05:10:37;10.93;;;3.97;;
28613;SDS011;15806;53.548;9.964;2023-02-28T05:12:18;9.93;;;3.80;;
28613;SDS011;15806;53.548;9.964;2023-02-28T05:13:58;8.93;;;4.20;;
28613;SDS011;15806;53.548;9.964;2023-02-28T05:15:39;9.73;;;4.80;;
28613;SDS011;15806;53.548;9.964;2023-02-28T05:17:19;10.83;;;3.80;;
28613;SDS011;15806;53.548;9.964;2023-02-28T05:19:00;10.07;;;4.43;;
28613;SDS011;15806;53.548;9.964;2023-02-28T05:20:41;14.70;;;5.25;;
28613;SDS011;15806;53.548;9.964;2023-02-28T05:22:21;13.23;;;4.30;;
28613;SDS011;15806;53.548;9.964;2023-02-28T05:24:03;16.50;;;5.37;;
28613;SDS011;15806;53.548;9.964;2023-02-28T05:25:45;9.25;;;3.83;;
28613;SDS011;15806;53.548;9.964;2023-02-28T05:27:26;8.83;;;4.03;;
28613;SDS011;15806;53.548;9.964;2023-02-28T05:29:07;9.55;;;4.88;;
28613;SDS011;15806;53.548;9.964;2023-02-28T05:30:48;15.85;;;4.22;;
28613;SDS011;15806;53.548;9.964;2023-02-28T05:32:29;9.60;;;3.80;;
28613;SDS011;15806;53.548;9.964;2023-02-28T05:34:09;11.73;;;4.43;;
28613;SDS011;15806;53.548;9.964;2023-02-28T05:35:50;14.57;;;4.50;;
28613;SDS011;15806;53.548;9.964;2023-02-28T05:37:30;10.57;;;4.10;;
28613;SDS011;15806;53.548;9.964;2023-02-28T05:39:11;10.33;;;4.60;;
28613;SDS011;15806;53.548;9.964;2023-02-28T05:40:52;16.77;;;5.00;;
28613;SDS011;15806;53.548;9.964;2023-02-28T05:42:32;15.47;;;5.03;;
28613;SDS011;15806;53.548;9.964;2023-02-28T05:44:13;11.07;;;4.47;;
28613;SDS011;15806;53.548;9.964;2023-02-28T05:47:35;14.18;;;5.35;;
28613;SDS011;15806;53.548;9.964;2023-02-28T05:49:16;12.70;;;5.07;;
28613;SDS011;15806;53.548;9.964;2023-02-28T05:50:57;17.60;;;5.37;;
28613;SDS011;15806;53.548;9.964;2023-02-28T05:52:37;18.10;;;5.28;;
28613;SDS011;15806;53.548;9.964;2023-02-28T05:54:18;27.30;;;7.23;;
28613;SDS011;15806;53.548;9.964;2023-02-28T05:55:59;29.93;;;7.27;;
28613;SDS011;15806;53.548;9.964;2023-02-28T05:57:39;21.63;;;6.53;;
28613;SDS011;15806;53.548;9.964;2023-02-28T05:59:20;27.73;;;7.27;;
28613;SDS011;15806;53.548;9.964;2023-02-28T06:01:19;26.37;;;7.63;;
28613;SDS011;15806;53.548;9.964;2023-02-28T06:03:01;35.47;;;7.55;;
28613;SDS011;15806;53.548;9.964;2023-02-28T06:04:42;23.63;;;7.23;;
28613;SDS011;15806;53.548;9.964;2023-02-28T06:08:04;25.88;;;7.18;;
28613;SDS011;15806;53.548;9.964;2023-02-28T06:09:44;28.50;;;7.80;;
28613;SDS011;15806;53.548;9.964;2023-02-28T06:11:25;20.37;;;6.27;;
28613;SDS011;15806;53.548;9.964;2023-02-28T06:13:06;28.83;;;7.68;;
28613;SDS011;15806;53.548;9.964;2023-02-28T06:14:47;17.33;;;6.50;;
28613;SDS011;15806;53.548;9.964;2023-02-28T06:16:28;18.30;;;6.27;;
28613;SDS011;15806;53.548;9.964;2023-02-28T06:18:10;26.23;;;7.22;;
28613;SDS011;15806;53.548;9.964;2023-02-28T06:19:50;18.00;;;5.97;;
28613;SDS011;15806;53.548;9.964;2023-02-28T06:21:31;16.63;;;5.33;;
28613;SDS011;15806;53.548;9.964;2023-02-28T06:23:12;15.30;;;5.65;;
28613;SDS011;15806;53.548;9.964;2023-02-28T06:24:52;18.50;;;6.00;;
28613;SDS011;15806;53.548;9.964;2023-02-28T06:26:33;13.17;;;4.67;;
28613;SDS011;15806;53.548;9.964;2023-02-28T06:28:14;19.47;;;6.47;;
28613;SDS011;15806;53.548;9.964;2023-02-28T06:29:54;18.77;;;5.63;;
28613;SDS011;15806;53.548;9.964;2023-02-28T06:31:35;19.75;;;6.07;;
28613;SDS011;15806;53.548;9.964;2023-02-28T06:33:16;16.40;;;5.03;;
28613;SDS011;15806;53.548;9.964;2023-02-28T06:34:57;14.88;;;5.00;;
28613;SDS011;15806;53.548;9.964;2023-02-28T06:36:38;14.43;;;5.00;;
28613;SDS011;15806;53.548;9.964;2023-02-28T06:38:19;8.20;;;4.55;;
28613;SDS011;15806;53.548;9.964;2023-02-28T06:39:59;15.13;;;4.33;;
28613;SDS011;15806;53.548;9.964;2023-02-28T06:41:40;14.77;;;4.63;;
28613;SDS011;15806;53.548;9.964;2023-02-28T06:43:21;8.10;;;3.67;;
28613;SDS011;15806;53.548;9.964;2023-02-28T06:45:02;13.55;;;5.15;;
28613;SDS011;15806;53.548;9.964;2023-02-28T06:46:43;14.05;;;4.78;;
28613;SDS011;15806;53.548;9.964;2023-02-28T06:48:27;9.20;;;4.38;;
28613;SDS011;15806;53.548;9.964;2023-02-28T06:50:09;9.90;;;5.00;;
28613;SDS011;15806;53.548;9.964;2023-02-28T06:51:52;16.25;;;5.55;;
28613;SDS011;15806;53.548;9.964;2023-02-28T06:53:32;13.47;;;6.27;;
28613;SDS011;15806;53.548;9.964;2023-02-28T06:55:13;17.20;;;5.97;;
28613;SDS011;15806;53.548;9.964;2023-02-28T06:56:54;10.20;;;5.13;;
28613;SDS011;15806;53.548;9.964;2023-02-28T06:58:34;12.80;;;5.03;;
28613;SDS011;15806;53.548;9.964;2023-02-28T07:00:15;11.13;;;5.32;;
28613;SDS011;15806;53.548;9.964;2023-02-28T07:01:56;14.25;;;5.35;;
28613;SDS011;15806;53.548;9.964;2023-02-28T07:03:36;14.97;;;6.43;;
28613;SDS011;15806;53.548;9.964;2023-02-28T07:05:26;15.97;;;6.13;;
28613;SDS011;15806;53.548;9.964;2023-02-28T07:07:25;20.27;;;7.20;;
28613;SDS011;15806;53.548;9.964;2023-02-28T07:09:05;16.33;;;7.33;;
28613;SDS011;15806;53.548;9.964;2023-02-28T07:10:46;15.50;;;6.57;;
28613;SDS011;15806;53.548;9.964;2023-02-28T07:12:27;12.47;;;6.27;;
28613;SDS011;15806;53.548;9.964;2023-02-28T07:14:07;14.37;;;6.30;;
28613;SDS011;15806;53.548;9.964;2023-02-28T07:15:55;17.10;;;7.97;;
28613;SDS011;15806;53.548;9.964;2023-02-28T07:17:39;15.63;;;7.75;;
28613;SDS011;15806;53.548;9.964;2023-02-28T07:19:20;13.03;;;6.67;;
28613;SDS011;15806;53.548;9.964;2023-02-28T07:21:02;16.17;;;7.37;;
28613;SDS011;15806;53.548;9.964;2023-02-28T07:22:47;15.13;;;5.97;;
28613;SDS011;15806;53.548;9.964;2023-02-28T07:24:27;13.07;;;4.87;;
28613;SDS011;15806;53.548;9.964;2023-02-28T07:26:10;12.88;;;6.50;;
28613;SDS011;15806;53.548;9.964;2023-02-28T07:27:53;15.85;;;5.72;;
28613;SDS011;15806;53.548;9.964;2023-02-28T07:29:34;16.58;;;5.20;;
28613;SDS011;15806;53.548;9.964;2023-02-28T07:31:15;12.37;;;5.53;;
28613;SDS011;15806;53.548;9.964;2023-02-28T07:32:57;14.75;;;5.40;;
28613;SDS011;15806;53.548;9.964;2023-02-28T07:34:38;15.03;;;5.60;;
28613;SDS011;15806;53.548;9.964;2023-02-28T07:36:19;8.57;;;4.37;;
28613;SDS011;15806;53.548;9.964;2023-02-28T07:37:59;17.13;;;6.73;;
28613;SDS011;15806;53.548;9.964;2023-02-28T07:39:41;11.43;;;5.88;;
28613;SDS011;15806;53.548;9.964;2023-02-28T07:41:22;12.50;;;5.97;;
28613;SDS011;15806;53.548;9.964;2023-02-28T07:43:02;15.93;;;6.77;;
28613;SDS011;15806;53.548;9.964;2023-02-28T07:44:43;18.00;;;7.68;;
28613;SDS011;15806;53.548;9.964;2023-02-28T07:46:24;12.03;;;6.17;;
28613;SDS011;15806;53.548;9.964;2023-02-28T07:48:05;13.88;;;5.80;;
28613;SDS011;15806;53.548;9.964;2023-02-28T07:49:45;16.00;;;6.53;;
28613;SDS011;15806;53.548;9.964;2023-02-28T07:51:26;13.67;;;6.07;;
28613;SDS011;15806;53.548;9.964;2023-02-28T07:53:06;12.50;;;5.83;;
28613;SDS011;15806;53.548;9.964;2023-02-28T07:54:48;16.35;;;6.28;;
28613;SDS011;15806;53.548;9.964;2023-02-28T07:56:28;18.20;;;7.73;;
28613;SDS011;15806;53.548;9.964;2023-02-28T07:58:09;18.70;;;7.97;;
28613;SDS011;15806;53.548;9.964;2023-02-28T07:59:49;14.63;;;5.87;;
28613;SDS011;15806;53.548;9.964;2023-02-28T08:01:30;16.30;;;6.80;;
28613;SDS011;15806;53.548;9.964;2023-02-28T08:03:11;12.57;;;6.77;;
28613;SDS011;15806;53.548;9.964;2023-02-28T08:04:53;14.93;;;8.10;;
28613;SDS011;15806;53.548;9.964;2023-02-28T08:06:33;17.63;;;7.70;;
28613;SDS011;15806;53.548;9.964;2023-02-28T08:08:14;14.70;;;7.90;;
28613;SDS011;15806;53.548;9.964;2023-02-28T08:09:56;18.67;;;8.00;;
28613;SDS011;15806;53.548;9.964;2023-02-28T08:11:36;16.40;;;7.67;;
28613;SDS011;15806;53.548;9.964;2023-02-28T08:13:17;21.63;;;8.97;;
28613;SDS011;15806;53.548;9.964;2023-02-28T08:14:57;14.27;;;5.73;;
28613;SDS011;15806;53.548;9.964;2023-02-28T08:16:38;16.73;;;6.67;;
28613;SDS011;15806;53.548;9.964;2023-02-28T08:18:19;12.10;;;6.23;;
28613;SDS011;15806;53.548;9.964;2023-02-28T08:19:59;15.00;;;7.97;;
28613;SDS011;15806;53.548;9.964;2023-02-28T08:21:40;19.60;;;6.87;;
28613;SDS011;15806;53.548;9.964;2023-02-28T08:23:20;15.73;;;6.73;;
28613;SDS011;15806;53.548;9.964;2023-02-28T08:25:01;14.13;;;6.87;;
28613;SDS011;15806;53.548;9.964;2023-02-28T08:26:42;16.03;;;6.17;;
28613;SDS011;15806;53.548;9.964;2023-02-28T08:28:22;17.50;;;4.70;;
28613;SDS011;15806;53.548;9.964;2023-02-28T08:30:03;11.80;;;6.43;;
28613;SDS011;15806;53.548;9.964;2023-02-28T08:31:44;14.23;;;5.97;;
28613;SDS011;15806;53.548;9.964;2023-02-28T08:33:26;14.43;;;5.10;;
28613;SDS011;15806;53.548;9.964;2023-02-28T08:35:07;13.98;;;4.93;;
28613;SDS011;15806;53.548;9.964;2023-02-28T08:36:48;13.73;;;4.85;;
28613;SDS011;15806;53.548;9.964;2023-02-28T08:38:29;13.60;;;4.63;;
28613;SDS011;15806;53.548;9.964;2023-02-28T08:40:09;20.93;;;4.47;;
28613;SDS011;15806;53.548;9.964;2023-02-28T08:41:50;13.30;;;5.78;;
28613;SDS011;15806;53.548;9.964;2023-02-28T08:43:31;13.90;;;4.73;;
28613;SDS011;15806;53.548;9.964;2023-02-28T08:45:12;10.53;;;5.13;;
28613;SDS011;15806;53.548;9.964;2023-02-28T08:46:53;16.45;;;4.90;;
28613;SDS011;15806;53.548;9.964;2023-02-28T08:48:34;9.27;;;4.80;;
28613;SDS011;15806;53.548;9.964;2023-02-28T08:51:56;15.48;;;4.95;;
28613;SDS011;15806;53.548;9.964;2023-02-28T08:53:37;13.17;;;4.43;;
28613;SDS011;15806;53.548;9.964;2023-02-28T08:55:18;11.65;;;4.40;;
28613;SDS011;15806;53.548;9.964;2023-02-28T08:56:59;14.47;;;4.60;;
28613;SDS011;15806;53.548;9.964;2023-02-28T08:58:40;9.33;;;4.07;;
28613;SDS011;15806;53.548;9.964;2023-02-28T09:00:21;8.47;;;3.60;;
28613;SDS011;15806;53.548;9.964;2023-02-28T09:02:02;15.18;;;4.10;;
28613;SDS011;15806;53.548;9.964;2023-02-28T09:03:42;12.67;;;3.73;;
28613;SDS011;15806;53.548;9.964;2023-02-28T09:05:24;13.82;;;4.72;;
28613;SDS011;15806;53.548;9.964;2023-02-28T09:07:04;18.50;;;6.87;;
28613;SDS011;15806;53.548;9.964;2023-02-28T09:08:45;14.70;;;4.47;;
28613;SDS011;15806;53.548;9.964;2023-02-28T09:10:26;17.37;;;4.93;;
28613;SDS011;15806;53.548;9.964;2023-02-28T09:12:06;10.43;;;4.57;;
28613;SDS011;15806;53.548;9.964;2023-02-28T09:13:47;12.23;;;4.93;;
28613;SDS011;15806;53.548;9.964;2023-02-28T09:15:27;12.20;;;3.70;;
28613;SDS011;15806;53.548;9.964;2023-02-28T09:17:08;15.33;;;5.03;;
28613;SDS011;15806;53.548;9.964;2023-02-28T09:18:48;8.97;;;3.67;;
28613;SDS011;15806;53.548;9.964;2023-02-28T09:20:29;13.07;;;3.97;;
28613;SDS011;15806;53.548;9.964;2023-02-28T09:22:10;11.67;;;3.13;;
28613;SDS011;15806;53.548;9.964;2023-02-28T09:23:51;10.10;;;2.75;;
28613;SDS011;15806;53.548;9.964;2023-02-28T09:25:32;9.27;;;2.47;;
28613;SDS011;15806;53.548;9.964;2023-02-28T09:27:13;6.50;;;2.75;;
28613;SDS011;15806;53.548;9.964;2023-02-28T09:28:54;7.03;;;2.80;;
28613;SDS011;15806;53.548;9.964;2023-02-28T09:30:35;4.90;;;2.95;;
28613;SDS011;15806;53.548;9.964;2023-02-28T09:32:15;10.43;;;2.63;;
28613;SDS011;15806;53.548;9.964;2023-02-28T09:33:56;2.87;;;2.13;;
28613;SDS011;15806;53.548;9.964;2023-02-28T09:35:37;2.80;;;1.20;;
28613;SDS011;15806;53.548;9.964;2023-02-28T09:37:18;3.00;;;1.33;;
28613;SDS011;15806;53.548;9.964;2023-02-28T09:38:58;5.53;;;1.43;;
28613;SDS011;15806;53.548;9.964;2023-02-28T09:41:24;5.63;;;1.70;;
28613;SDS011;15806;53.548;9.964;2023-02-28T09:42:45;3.92;;;1.50;;
28613;SDS011;15806;53.548;9.964;2023-02-28T09:44:37;3.95;;;1.40;;
28613;SDS011;15806;53.548;9.964;2023-02-28T09:46:34;4.18;;;1.95;;
28613;SDS011;15806;53.548;9.964;2023-02-28T09:48:20;4.63;;;1.17;;
28613;SDS011;15806;53.548;9.964;2023-02-28T09:52:20;1.60;;;1.00;;
28613;SDS011;15806;53.548;9.964;2023-02-28T09:54:05;3.80;;;0.90;;
28613;SDS011;15806;53.548;9.964;2023-02-28T09:55:47;1.43;;;0.80;;
28613;SDS011;15806;53.548;9.964;2023-02-28T09:57:32;0.88;;;0.60;;
28613;SDS011;15806;53.548;9.964;2023-02-28T09:59:28;1.48;;;0.80;;
28613;SDS011;15806;53.548;9.964;2023-02-28T10:03:39;2.15;;;1.02;;
28613;SDS011;15806;53.548;9.964;2023-02-28T10:05:16;1.48;;;0.55;;
28613;SDS011;15806;53.548;9.964;2023-02-28T10:07:00;2.05;;;0.40;;
28613;SDS011;15806;53.548;9.964;2023-02-28T10:08:47;2.50;;;0.55;;
28613;SDS011;15806;53.548;9.964;2023-02-28T10:10:49;1.77;;;0.60;;
28613;SDS011;15806;53.548;9.964;2023-02-28T10:12:34;1.23;;;0.65;;
28613;SDS011;15806;53.548;9.964;2023-02-28T10:14:22;3.17;;;1.33;;
28613;SDS011;15806;53.548;9.964;2023-02-28T10:16:07;2.67;;;0.68;;
28613;SDS011;15806;53.548;9.964;2023-02-28T10:17:56;3.65;;;0.73;;
28613;SDS011;15806;53.548;9.964;2023-02-28T10:19:46;7.07;;;1.73;;
28613;SDS011;15806;53.548;9.964;2023-02-28T10:21:48;1.55;;;0.68;;
28613;SDS011;15806;53.548;9.964;2023-02-28T10:23:34;1.73;;;0.38;;
28613;SDS011;15806;53.548;9.964;2023-02-28T10:25:20;1.55;;;0.77;;
28613;SDS011;15806;53.548;9.964;2023-02-28T10:27:06;2.80;;;1.23;;
28613;SDS011;15806;53.548;9.964;2023-02-28T10:28:57;3.60;;;1.45;;
28613;SDS011;15806;53.548;9.964;2023-02-28T10:30:39;1.03;;;0.67;;
28613;SDS011;15806;53.548;9.964;2023-02-28T10:34:32;0.63;;;0.50;;
28613;SDS011;15806;53.548;9.964;2023-02-28T10:36:14;3.10;;;0.83;;
28613;SDS011;15806;53.548;9.964;2023-02-28T10:37:57;2.90;;;0.80;;
28613;SDS011;15806;53.548;9.964;2023-02-28T10:39:41;1.95;;;0.75;;
28613;SDS011;15806;53.548;9.964;2023-02-28T10:46:50;1.90;;;0.82;;
28613;SDS011;15806;53.548;9.964;2023-02-28T10:50:27;3.03;;;1.20;;
28613;SDS011;15806;53.548;9.964;2023-02-28T10:52:10;4.53;;;0.75;;
28613;SDS011;15806;53.548;9.964;2023-02-28T10:53:52;2.50;;;0.77;;
28613;SDS011;15806;53.548;9.964;2023-02-28T10:55:35;1.42;;;0.82;;
28613;SDS011;15806;53.548;9.964;2023-02-28T10:57:17;5.35;;;2.10;;
28613;SDS011;15806;53.548;9.964;2023-02-28T11:00:55;2.20;;;1.23;;
28613;SDS011;15806;53.548;9.964;2023-02-28T11:02:37;2.22;;;0.90;;
28613;SDS011;15806;53.548;9.964;2023-02-28T11:06:08;2.08;;;0.80;;
28613;SDS011;15806;53.548;9.964;2023-02-28T11:08:12;2.80;;;1.00;;
28613;SDS011;15806;53.548;9.964;2023-02-28T11:09:56;5.25;;;1.23;;
28613;SDS011;15806;53.548;9.964;2023-02-28T11:11:44;1.95;;;0.90;;
28613;SDS011;15806;53.548;9.964;2023-02-28T11:13:33;4.28;;;1.27;;